Time;durP1;ratioP1;P1;durP2;ratioP2;P2;SDS_P1;SDS_P2;PMS_P1;PMS_P2;Temp;Humidity;BMP_temperature;BMP_pressure;BME280_temperature;BME280_humidity;BME280_pressure;Samples;Min_cycle;Max_cycle;Signal;HPM_P1;HPM_P2
2023/07/22 03:06:19;;;;;;;20.75;9.00;;;11.40;99.90;;;;;;4923904;23;20052;-84
2023/07/22 03:08:44;;;;;;;17.77;8.00;;;11.40;99.90;;;;;;4951282;29;20051;-84
2023/07/22 03:11:10;;;;;;;19.73;8.65;;;11.40;99.90;;;;;;4936955;29;20051;-84
2023/07/22 03:13:39;;;;;;;19.42;9.15;;;11.40;99.90;;;;;;4932740;29;20043;-83
2023/07/22 03:16:08;;;;;;;21.50;9.32;;;11.40;99.90;;;;;;4917970;29;20044;-84
2023/07/22 03:18:39;;;;;;;22.48;9.45;;;12.60;99.90;;;;;;4940801;29;20051;-83
2023/07/22 03:21:08;;;;;;;21.10;8.43;;;11.20;99.90;;;;;;4940119;29;20047;-84
2023/07/22 03:23:37;;;;;;;18.55;8.40;;;12.60;99.90;;;;;;4956553;28;20400;-84
2023/07/22 03:26:09;;;;;;;19.38;8.02;;;12.60;99.90;;;;;;4940709;29;20492;-83
2023/07/22 03:28:38;;;;;;;21.67;8.20;;;12.70;99.90;;;;;;4939307;28;20035;-83
2023/07/22 03:31:15;;;;;;;20.00;8.30;;;11.50;99.90;;;;;;4957910;29;20051;-83
2023/07/22 03:33:46;;;;;;;22.63;8.95;;;11.40;99.90;;;;;;4937292;29;20404;-84
2023/07/22 03:36:12;;;;;;;18.33;8.50;;;11.50;99.90;;;;;;4938882;29;20083;-83
2023/07/22 03:39:09;;;;;;;18.13;8.07;;;12.10;99.90;;;;;;4944219;28;20144;-83
2023/07/22 03:41:37;;;;;;;22.17;9.00;;;11.50;99.90;;;;;;4939634;29;20043;-83
2023/07/22 03:44:03;;;;;;;20.60;8.63;;;11.50;99.90;;;;;;4957609;28;20431;-83
2023/07/22 03:46:47;;;;;;;20.35;8.90;;;11.60;99.90;;;;;;4957253;28;20047;-84
2023/07/22 03:49:19;;;;;;;20.63;8.85;;;12.60;99.90;;;;;;4956622;28;20506;-83
2023/07/22 03:51:53;;;;;;;20.67;8.73;;;12.30;99.90;;;;;;4957688;29;20118;-84
2023/07/22 03:54:19;;;;;;;19.92;9.32;;;12.60;99.90;;;;;;4957030;29;20036;-83
2023/07/22 03:56:45;;;;;;;19.13;8.75;;;11.80;99.90;;;;;;4939144;29;20055;-84
2023/07/22 03:59:32;;;;;;;20.65;8.82;;;11.80;99.90;;;;;;4936869;29;20048;-83
2023/07/22 04:02:00;;;;;;;21.45;9.13;;;13.10;99.90;;;;;;4947103;29;20047;-84
2023/07/22 04:04:47;;;;;;;19.48;8.82;;;13.10;99.90;;;;;;4927614;29;20408;-83
2023/07/22 04:07:13;;;;;;;20.65;8.98;;;12.00;99.90;;;;;;4920524;29;20071;-84
2023/07/22 04:09:45;;;;;;;20.05;9.02;;;12.00;99.90;;;;;;4946387;29;20126;-84
2023/07/22 04:12:17;;;;;;;20.70;8.23;;;12.00;99.90;;;;;;4940825;29;20082;-84
2023/07/22 04:15:02;;;;;;;20.38;8.82;;;12.00;99.90;;;;;;4941110;29;20035;-84
2023/07/22 04:17:29;;;;;;;19.70;8.77;;;12.10;99.90;;;;;;4956332;29;20122;-83
2023/07/22 04:19:54;;;;;;;16.85;7.55;;;12.20;99.90;;;;;;4939686;29;20094;-84
2023/07/22 04:22:21;;;;;;;19.92;8.05;;;12.20;99.90;;;;;;4957209;29;20055;-84
2023/07/22 04:25:08;;;;;;;18.92;8.30;;;12.30;99.90;;;;;;4955732;29;20039;-84
2023/07/22 04:28:36;;;;;;;18.08;8.13;;;12.40;99.90;;;;;;5003932;23;20051;-84
2023/07/22 04:32:08;;;;;;;18.83;8.18;;;12.20;99.90;;;;;;4919227;29;20111;-84
2023/07/22 04:34:40;;;;;;;20.15;8.60;;;12.70;99.90;;;;;;4943936;29;20803;-84
2023/07/22 04:37:13;;;;;;;18.33;8.30;;;12.50;99.90;;;;;;4955571;29;20039;-84
2023/07/22 04:39:41;;;;;;;18.80;8.40;;;12.60;99.90;;;;;;4950890;28;20111;-84
2023/07/22 04:42:11;;;;;;;18.13;7.82;;;13.20;99.90;;;;;;4936145;29;20078;-84
2023/07/22 04:44:44;;;;;;;16.65;7.78;;;13.80;99.90;;;;;;4942993;29;20078;-83
2023/07/22 04:47:10;;;;;;;17.58;7.97;;;12.80;99.90;;;;;;4955825;29;20047;-84
2023/07/22 04:50:01;;;;;;;19.02;8.63;;;12.80;99.90;;;;;;4952563;29;20130;-84
2023/07/22 04:52:27;;;;;;;18.85;8.15;;;12.80;99.90;;;;;;4937031;29;20050;-84
2023/07/22 04:54:53;;;;;;;18.85;8.65;;;13.00;99.90;;;;;;4945851;29;20035;-84
2023/07/22 04:57:40;;;;;;;20.27;8.43;;;13.00;99.90;;;;;;4939249;29;20463;-84
2023/07/22 05:00:28;;;;;;;17.98;8.38;;;13.00;99.90;;;;;;4961358;23;20111;-84
2023/07/22 05:02:56;;;;;;;16.83;7.65;;;13.00;99.90;;;;;;4932205;23;20048;-84
2023/07/22 05:05:21;;;;;;;17.90;8.30;;;13.80;99.90;;;;;;4935641;29;20139;-84
2023/07/22 05:08:03;;;;;;;19.10;8.60;;;13.80;99.90;;;;;;4934602;29;20127;-84
2023/07/22 05:10:32;;;;;;;18.42;8.65;;;13.20;99.90;;;;;;4936154;29;20404;-85
2023/07/22 05:12:58;;;;;;;16.77;8.35;;;13.30;99.90;;;;;;4934831;29;20118;-85
2023/07/22 05:15:26;;;;;;;17.83;8.20;;;13.50;99.90;;;;;;4936940;29;20075;-84
2023/07/22 05:17:55;;;;;;;18.27;8.30;;;13.40;99.90;;;;;;4934926;29;20424;-84
2023/07/22 05:20:21;;;;;;;17.13;7.90;;;13.40;99.90;;;;;;4936032;29;20044;-84
2023/07/22 05:23:10;;;;;;;16.92;8.32;;;13.40;99.90;;;;;;4935224;29;20079;-84
2023/07/22 05:26:12;;;;;;;17.23;7.53;;;13.40;99.90;;;;;;4937454;29;20043;-84
2023/07/22 05:28:38;;;;;;;17.17;8.07;;;13.50;99.90;;;;;;4935614;29;20580;-83
2023/07/22 05:31:09;;;;;;;20.77;8.88;;;14.50;99.90;;;;;;4934973;29;20138;-84
2023/07/22 05:33:53;;;;;;;19.08;8.40;;;13.60;99.90;;;;;;4934487;29;20050;-84
2023/07/22 05:36:41;;;;;;;16.15;8.27;;;14.60;99.90;;;;;;4935902;29;20054;-84
2023/07/22 05:39:09;;;;;;;17.45;8.23;;;13.00;99.90;;;;;;4936578;29;20485;-84
2023/07/22 05:41:35;;;;;;;19.13;8.77;;;14.10;99.90;;;;;;4934353;29;20095;-84
2023/07/22 05:44:01;;;;;;;20.98;8.85;;;13.60;99.90;;;;;;4935272;29;20055;-84
2023/07/22 05:46:27;;;;;;;18.40;8.60;;;13.50;99.90;;;;;;4934881;29;20050;-84
2023/07/22 05:49:56;;;;;;;18.00;8.65;;;13.50;99.90;;;;;;4933476;29;20075;-84
2023/07/22 05:52:21;;;;;;;18.60;8.95;;;13.50;99.90;;;;;;4895972;29;20048;-84
2023/07/22 05:54:47;;;;;;;17.80;9.07;;;14.20;99.90;;;;;;4880206;29;20088;-84
2023/07/22 05:57:19;;;;;;;18.10;9.07;;;13.90;99.90;;;;;;4879966;29;20053;-84
2023/07/22 05:59:45;;;;;;;19.70;9.65;;;13.20;99.90;;;;;;4895630;29;20105;-84
2023/07/22 06:03:01;;;;;;;19.70;10.15;;;13.50;99.90;;;;;;4899136;23;20521;-85
2023/07/22 06:06:18;;;;;;;17.85;9.35;;;13.50;99.90;;;;;;4918532;29;20134;-85
2023/07/22 06:12:22;;;;;;;19.33;9.90;;;12.80;99.90;;;;;;4916873;29;20056;-84
2023/07/22 06:14:51;;;;;;;19.13;10.27;;;13.60;99.90;;;;;;4903267;29;20096;-84
2023/07/22 06:17:18;;;;;;;21.10;10.43;;;13.60;99.90;;;;;;4934163;29;20079;-82
2023/07/22 06:19:53;;;;;;;20.77;10.50;;;13.60;99.90;;;;;;4917346;29;20102;-82
2023/07/22 06:22:28;;;;;;;21.02;10.27;;;13.60;99.90;;;;;;4934475;29;20102;-82
2023/07/22 06:24:53;;;;;;;19.60;10.32;;;13.70;99.90;;;;;;4916848;29;20079;-82
2023/07/22 06:27:19;;;;;;;18.35;10.07;;;13.70;99.90;;;;;;4918549;29;20452;-82
2023/07/22 06:29:50;;;;;;;22.73;10.63;;;14.30;99.90;;;;;;4918183;29;20052;-82
2023/07/22 06:32:16;;;;;;;21.63;10.77;;;13.90;99.90;;;;;;4917167;29;20039;-82
2023/07/22 06:34:45;;;;;;;19.08;9.98;;;13.90;99.90;;;;;;4935638;29;20503;-82
2023/07/22 06:37:10;;;;;;;21.48;10.13;;;13.90;99.90;;;;;;4918635;29;20083;-82
2023/07/22 06:39:54;;;;;;;21.70;10.52;;;14.00;99.90;;;;;;4934969;29;20039;-82
2023/07/22 06:42:43;;;;;;;24.17;11.00;;;14.10;99.90;;;;;;4935427;29;20074;-83
2023/07/22 06:45:15;;;;;;;20.42;10.27;;;15.10;99.90;;;;;;4907653;29;20087;-82
2023/07/22 06:47:53;;;;;;;22.30;11.32;;;14.20;99.90;;;;;;4935181;29;20054;-81
2023/07/22 06:50:22;;;;;;;23.58;11.95;;;14.70;99.90;;;;;;4918590;29;20056;-82
2023/07/22 06:52:47;;;;;;;25.42;11.95;;;15.20;99.90;;;;;;4933829;29;20125;-82
2023/07/22 06:55:13;;;;;;;23.60;12.27;;;15.10;99.90;;;;;;4935648;29;20142;-81
2023/07/22 06:57:39;;;;;;;21.38;11.48;;;14.40;99.90;;;;;;4935301;29;20043;-81
2023/07/22 07:00:05;;;;;;;23.10;11.70;;;14.50;99.90;;;;;;4935051;29;20488;-81
2023/07/22 07:02:34;;;;;;;23.70;12.43;;;14.50;99.90;;;;;;4980765;23;20054;-81
2023/07/22 07:05:00;;;;;;;27.58;12.55;;;14.70;99.90;;;;;;4956218;28;20507;-82
2023/07/22 07:07:32;;;;;;;22.50;11.73;;;14.50;99.90;;;;;;4948974;29;20055;-80
2023/07/22 07:10:05;;;;;;;24.08;12.40;;;14.50;99.90;;;;;;4954173;29;20058;-81
2023/07/22 07:12:43;;;;;;;24.75;12.77;;;14.70;99.90;;;;;;4953397;29;20043;-81
2023/07/22 07:15:14;;;;;;;27.13;11.93;;;14.80;99.90;;;;;;4945574;29;20484;-81
2023/07/22 07:17:40;;;;;;;26.25;12.82;;;14.70;99.90;;;;;;4938467;28;20042;-81
2023/07/22 07:20:14;;;;;;;24.00;12.32;;;15.90;99.90;;;;;;4943950;29;20043;-81
2023/07/22 07:22:39;;;;;;;23.10;12.40;;;15.10;99.90;;;;;;4940599;29;20051;-81
2023/07/22 07:25:12;;;;;;;24.15;11.88;;;15.20;99.90;;;;;;4937289;29;20066;-80
2023/07/22 07:27:43;;;;;;;25.90;12.88;;;16.20;99.90;;;;;;4940557;29;20071;-80
2023/07/22 07:30:15;;;;;;;24.15;12.27;;;15.40;99.90;;;;;;4938356;28;20047;-81
2023/07/22 07:32:43;;;;;;;23.65;12.82;;;15.50;99.90;;;;;;4953598;29;20043;-80
2023/07/22 07:35:18;;;;;;;24.00;13.07;;;15.80;99.90;;;;;;4954311;29;20047;-80
2023/07/22 07:37:47;;;;;;;25.17;12.88;;;15.80;99.90;;;;;;4956241;29;20376;-81
2023/07/22 07:40:15;;;;;;;24.05;12.50;;;15.90;99.90;;;;;;4955528;29;20053;-81
2023/07/22 07:42:44;;;;;;;23.17;11.88;;;15.90;99.90;;;;;;4936275;29;20055;-81
2023/07/22 07:45:10;;;;;;;24.55;12.73;;;16.80;99.90;;;;;;4954668;29;20055;-81
2023/07/22 07:47:45;;;;;;;23.45;11.98;;;16.10;99.90;;;;;;4936750;29;20048;-81
2023/07/22 07:50:11;;;;;;;24.17;12.70;;;16.20;99.90;;;;;;4953964;29;20062;-81
2023/07/22 07:52:50;;;;;;;23.60;12.15;;;16.10;99.90;;;;;;4936373;29;20048;-81
2023/07/22 07:55:16;;;;;;;24.85;13.10;;;16.10;99.90;;;;;;4936197;29;20047;-81
2023/07/22 07:57:41;;;;;;;24.27;12.27;;;16.80;99.90;;;;;;4934167;29;20047;-81
2023/07/22 08:00:08;;;;;;;23.58;12.30;;;16.30;99.90;;;;;;4936852;29;20059;-81
2023/07/22 08:02:35;;;;;;;22.50;12.13;;;16.30;99.90;;;;;;4946285;29;20083;-81
2023/07/22 08:05:01;;;;;;;22.45;12.57;;;16.60;99.90;;;;;;4943470;29;20039;-81
2023/07/22 08:07:37;;;;;;;24.90;11.95;;;16.60;99.90;;;;;;4950157;29;20391;-81
2023/07/22 08:10:15;;;;;;;20.80;12.68;;;16.70;99.90;;;;;;4955556;29;20530;-81
2023/07/22 08:12:49;;;;;;;20.73;11.23;;;16.90;99.90;;;;;;4951425;29;20039;-80
2023/07/22 08:15:36;;;;;;;20.83;11.77;;;17.10;99.90;;;;;;4965031;28;20053;-80
2023/07/22 08:18:03;;;;;;;20.30;10.63;;;17.50;99.90;;;;;;4953581;29;20086;-80
2023/07/22 08:20:47;;;;;;;20.20;10.55;;;17.70;99.90;;;;;;4962265;28;20039;-81
2023/07/22 08:23:15;;;;;;;20.17;11.13;;;17.70;99.90;;;;;;4956447;29;20506;-80
2023/07/22 08:25:41;;;;;;;19.35;10.13;;;17.80;99.90;;;;;;4967609;28;20046;-81
2023/07/22 08:28:09;;;;;;;18.65;10.15;;;17.90;99.90;;;;;;4976347;28;20414;-81
2023/07/22 08:30:35;;;;;;;20.85;10.90;;;18.00;99.90;;;;;;4958686;28;20057;-81
2023/07/22 08:33:02;;;;;;;19.50;10.50;;;18.10;99.90;;;;;;4955831;29;20047;-81
2023/07/22 08:35:28;;;;;;;18.23;9.75;;;18.20;99.90;;;;;;4962838;28;20046;-81
2023/07/22 08:37:54;;;;;;;19.45;10.60;;;18.20;99.90;;;;;;4958859;28;20046;-80
2023/07/22 08:40:20;;;;;;;19.10;10.07;;;18.20;99.90;;;;;;4974609;28;20076;-81
2023/07/22 08:42:47;;;;;;;17.55;10.27;;;18.40;99.90;;;;;;4968241;28;20122;-80
2023/07/22 08:45:14;;;;;;;17.27;9.13;;;18.40;99.90;;;;;;4969734;28;20045;-80
2023/07/22 08:47:47;;;;;;;15.40;8.77;;;18.40;99.90;;;;;;4970849;28;20526;-81
2023/07/22 08:50:17;;;;;;;17.10;8.95;;;18.70;99.90;;;;;;4977459;28;20411;-82
2023/07/22 08:52:44;;;;;;;14.80;8.32;;;18.60;99.90;;;;;;4957798;28;20042;-81
2023/07/22 08:55:10;;;;;;;16.85;7.93;;;18.70;99.90;;;;;;4954712;29;20050;-81
2023/07/22 08:57:39;;;;;;;15.20;8.32;;;18.90;99.90;;;;;;4955684;29;20039;-81
2023/07/22 09:00:06;;;;;;;14.32;8.15;;;19.40;99.90;;;;;;4943849;28;20069;-81
2023/07/22 09:02:36;;;;;;;15.45;7.97;;;19.50;99.90;;;;;;4977090;28;20113;-81
2023/07/22 09:05:02;;;;;;;14.60;7.82;;;19.50;99.90;;;;;;4975756;28;20057;-81
2023/07/22 09:07:29;;;;;;;17.33;8.30;;;19.60;99.90;;;;;;4976686;28;20050;-81
2023/07/22 09:09:57;;;;;;;14.45;7.82;;;19.40;99.90;;;;;;4976955;28;20110;-82
2023/07/22 09:12:23;;;;;;;14.30;7.22;;;19.40;99.90;;;;;;4957354;28;20149;-81
2023/07/22 09:14:50;;;;;;;14.63;7.43;;;19.50;99.90;;;;;;4957422;28;20046;-81
2023/07/22 09:17:16;;;;;;;14.57;7.30;;;19.50;99.90;;;;;;4957952;28;20513;-81
2023/07/22 09:19:41;;;;;;;14.38;7.15;;;19.70;99.90;;;;;;4956846;28;20046;-81
2023/07/22 09:22:08;;;;;;;13.98;7.32;;;19.70;99.90;;;;;;4976067;28;20046;-81
2023/07/22 09:24:33;;;;;;;13.52;7.10;;;19.60;99.90;;;;;;4976522;28;20050;-81
2023/07/22 09:27:00;;;;;;;13.43;6.93;;;19.50;99.90;;;;;;4952956;29;20036;-81
2023/07/22 09:29:38;;;;;;;12.63;6.50;;;19.50;99.90;;;;;;4959966;28;20046;-81
2023/07/22 09:32:05;;;;;;;12.88;6.15;;;19.30;99.90;;;;;;4955342;29;20062;-81
2023/07/22 09:34:30;;;;;;;11.82;5.60;;;19.00;99.90;;;;;;4954796;29;20042;-81
2023/07/22 09:37:00;;;;;;;12.88;6.45;;;18.80;99.90;;;;;;4972727;28;20407;-80
2023/07/22 09:39:26;;;;;;;12.52;6.65;;;18.50;99.90;;;;;;4957309;28;20066;-80
2023/07/22 09:41:52;;;;;;;11.70;6.38;;;18.30;99.90;;;;;;4953119;29;20051;-81
2023/07/22 09:44:18;;;;;;;14.90;7.00;;;18.40;99.90;;;;;;4938342;29;20103;-82
2023/07/22 09:46:48;;;;;;;14.52;7.53;;;17.90;99.90;;;;;;4969923;28;20109;-81
2023/07/22 09:49:16;;;;;;;16.80;7.93;;;17.70;99.90;;;;;;4952844;29;20075;-82
2023/07/22 09:51:42;;;;;;;17.30;7.93;;;17.50;99.90;;;;;;4941781;29;20086;-82
2023/07/22 09:54:07;;;;;;;15.15;8.18;;;17.40;99.90;;;;;;4959660;28;20043;-81
2023/07/22 09:56:44;;;;;;;16.00;8.30;;;17.30;99.90;;;;;;4962459;28;20050;-81
2023/07/22 09:59:10;;;;;;;16.67;8.13;;;17.10;99.90;;;;;;4974064;28;20097;-80
2023/07/22 10:01:39;;;;;;;18.05;8.10;;;17.00;99.90;;;;;;4973266;28;20726;-80
2023/07/22 10:04:15;;;;;;;17.13;8.10;;;16.80;99.90;;;;;;4957007;28;20050;-80
2023/07/22 10:18:30;;;;;;;13.48;6.65;;;16.60;99.90;;;;;;4972766;28;20041;-80
2023/07/22 10:20:57;;;;;;;13.70;6.78;;;16.20;99.90;;;;;;4973779;28;20058;-80
2023/07/22 10:24:04;;;;;;;;;;;;;;;;;;;;;
2023/07/22 10:30:15;;;;;;;12.07;6.55;;;16.60;99.90;;;;;;4962385;23;20062;-80
2023/07/22 10:33:31;;;;;;;12.98;6.75;;;16.50;99.90;;;;;;4842601;29;20072;-80
2023/07/22 10:39:30;;;;;;;12.45;6.10;;;16.20;99.90;;;;;;4876647;29;20056;-80
2023/07/22 10:42:05;;;;;;;15.05;7.18;;;16.30;99.90;;;;;;4876302;29;20510;-81
2023/07/22 10:48:23;;;;;;;14.02;7.40;;;16.40;99.90;;;;;;4857855;29;20054;-81
2023/07/22 10:50:54;;;;;;;15.60;7.03;;;16.40;99.90;;;;;;4875610;29;20053;-81
2023/07/22 10:53:25;;;;;;;13.65;7.53;;;16.30;99.90;;;;;;4860927;29;20045;-81
2023/07/22 10:56:28;;;;;;;13.68;7.43;;;16.30;99.90;;;;;;4860819;29;20057;-81
2023/07/22 10:59:03;;;;;;;15.68;7.82;;;16.20;99.90;;;;;;4859601;29;20161;-81
2023/07/22 11:01:36;;;;;;;14.95;7.28;;;16.80;99.90;;;;;;4860974;29;20049;-81
2023/07/22 11:04:07;;;;;;;14.40;8.02;;;16.20;99.90;;;;;;4950603;28;20138;-80
2023/07/22 11:06:34;;;;;;;15.80;8.40;;;16.20;99.90;;;;;;4955719;28;20059;-79
2023/07/22 11:08:59;;;;;;;17.38;8.57;;;16.20;99.90;;;;;;4945624;29;20071;-81
2023/07/22 11:11:40;;;;;;;16.55;8.52;;;16.20;99.90;;;;;;4944780;29;20147;-80
2023/07/22 11:14:27;;;;;;;18.23;8.68;;;16.60;99.90;;;;;;4961857;28;20046;-79
2023/07/22 11:16:56;;;;;;;17.35;9.00;;;16.50;99.90;;;;;;4944639;28;20040;-80
2023/07/22 11:19:25;;;;;;;18.85;8.75;;;16.10;99.90;;;;;;4938497;29;20047;-81
2023/07/22 11:21:52;;;;;;;18.52;9.02;;;16.30;99.90;;;;;;4953632;29;20062;-81
2023/07/22 11:24:25;;;;;;;17.65;8.73;;;16.20;99.90;;;;;;4942895;29;20145;-81
2023/07/22 11:30:58;;;;;;;16.92;8.93;;;16.20;99.90;;;;;;4860695;29;20123;-80
2023/07/22 11:44:15;;;;;;;21.52;9.88;;;16.00;99.90;;;;;;4943898;23;20043;-82
2023/07/22 11:47:37;;;;;;;23.65;11.18;;;15.90;99.90;;;;;;4917054;29;20051;-81
2023/07/22 11:54:22;;;;;;;19.05;10.50;;;15.20;99.90;;;;;;4918352;29;20095;-80
2023/07/22 11:56:55;;;;;;;22.48;11.80;;;15.10;99.90;;;;;;4918789;29;20110;-80
2023/07/22 12:00:04;;;;;;;18.88;10.90;;;15.30;99.90;;;;;;4919168;29;20032;-80
2023/07/22 12:06:14;;;;;;;19.88;10.65;;;14.90;99.90;;;;;;4917384;29;20044;-80
2023/07/22 12:08:52;;;;;;;19.45;9.50;;;15.10;99.90;;;;;;4909698;29;20041;-80
2023/07/22 12:11:43;;;;;;;16.27;9.07;;;15.20;99.90;;;;;;4917746;29;20051;-80
2023/07/22 12:14:13;;;;;;;15.35;9.35;;;15.20;99.90;;;;;;4919009;29;20099;-80
2023/07/22 12:16:59;;;;;;;16.08;9.70;;;15.20;99.90;;;;;;4920003;29;20091;-80
2023/07/22 12:20:06;;;;;;;17.88;9.98;;;15.20;99.90;;;;;;4917579;29;20079;-80
2023/07/22 12:22:34;;;;;;;16.30;9.75;;;15.00;99.90;;;;;;4900529;29;20047;-79
2023/07/22 12:25:07;;;;;;;15.55;9.93;;;15.30;99.90;;;;;;4911877;29;20048;-79
2023/07/22 12:27:32;;;;;;;15.60;9.52;;;15.30;99.90;;;;;;4917233;29;20405;-79
2023/07/22 12:30:08;;;;;;;16.25;10.45;;;15.40;99.90;;;;;;4915759;29;20055;-80
2023/07/22 12:32:46;;;;;;;15.80;9.60;;;15.40;99.90;;;;;;4917440;29;20044;-80
2023/07/22 12:35:24;;;;;;;16.33;9.90;;;15.40;99.90;;;;;;4916560;29;20493;-80
2023/07/22 12:37:50;;;;;;;14.65;8.50;;;15.50;99.90;;;;;;4913333;29;20036;-79
2023/07/22 12:40:16;;;;;;;15.95;8.93;;;15.60;99.90;;;;;;4948727;23;20428;-79
2023/07/22 12:42:41;;;;;;;17.25;9.48;;;15.60;99.90;;;;;;4932600;29;20425;-79
2023/07/22 12:45:07;;;;;;;15.30;9.65;;;16.10;99.90;;;;;;4917386;29;20048;-79
2023/07/22 12:47:33;;;;;;;15.93;9.68;;;15.60;99.90;;;;;;5235958;23;20499;-80
2023/07/22 12:50:02;;;;;;;15.93;9.88;;;15.60;99.90;;;;;;4966836;28;20054;-79
2023/07/22 12:52:28;;;;;;;17.10;10.23;;;15.50;99.90;;;;;;4965279;28;20031;-80
2023/07/22 12:54:54;;;;;;;17.48;9.25;;;15.70;99.90;;;;;;4946887;29;20050;-79
2023/07/22 12:57:20;;;;;;;15.52;9.48;;;15.60;99.90;;;;;;4939332;28;20600;-79
2023/07/22 12:59:46;;;;;;;14.48;8.98;;;15.70;99.90;;;;;;4946372;29;20499;-80
2023/07/22 13:02:12;;;;;;;15.85;9.02;;;15.60;99.90;;;;;;4942020;28;20054;-80
2023/07/22 13:04:38;;;;;;;17.08;10.07;;;16.00;99.90;;;;;;4945859;29;20392;-79
2023/07/22 13:07:04;;;;;;;15.95;9.55;;;15.50;99.90;;;;;;4955584;28;20040;-80
2023/07/22 13:09:29;;;;;;;16.58;9.30;;;15.50;99.90;;;;;;4963914;28;20031;-80
2023/07/22 13:11:56;;;;;;;15.18;9.70;;;15.40;99.90;;;;;;4947668;29;20047;-80
2023/07/22 13:14:22;;;;;;;14.43;9.68;;;15.30;99.90;;;;;;4941017;29;20035;-80
2023/07/22 13:16:49;;;;;;;17.23;9.95;;;15.20;99.90;;;;;;4945718;29;20437;-80
2023/07/22 13:19:14;;;;;;;14.40;8.90;;;15.10;99.90;;;;;;4961015;28;20035;-80
2023/07/22 13:21:40;;;;;;;12.63;6.85;;;15.00;99.90;;;;;;4948477;29;20075;-80
2023/07/22 13:24:21;;;;;;;15.32;7.55;;;14.90;99.90;;;;;;4969494;23;20495;-80
2023/07/22 13:26:54;;;;;;;12.73;7.00;;;14.80;99.90;;;;;;4925688;29;20108;-81
2023/07/22 13:29:38;;;;;;;11.52;6.68;;;14.70;99.90;;;;;;4927289;29;20047;-80
2023/07/22 13:32:07;;;;;;;;;;;14.60;99.90;;;;;;4928596;29;20051;-80
2023/07/22 13:37:06;;;;;;;13.82;7.40;;;14.50;99.90;;;;;;4995626;23;20117;-80
2023/07/22 13:39:35;;;;;;;14.32;6.90;;;14.50;99.90;;;;;;4944887;29;20039;-81
2023/07/22 13:42:19;;;;;;;13.73;7.38;;;14.40;99.90;;;;;;4937763;29;20072;-80
2023/07/22 13:44:54;;;;;;;13.88;8.05;;;14.40;99.90;;;;;;4962341;28;20035;-81
2023/07/22 13:47:35;;;;;;;13.27;7.80;;;14.40;99.90;;;;;;4943142;28;20051;-80
2023/07/22 13:50:01;;;;;;;15.73;8.30;;;14.50;99.90;;;;;;4942460;29;20120;-80
2023/07/22 13:52:43;;;;;;;14.95;8.45;;;15.00;99.90;;;;;;4937632;28;20686;-80
2023/07/22 13:55:12;;;;;;;15.07;8.95;;;14.50;99.90;;;;;;4963531;28;20511;-80
2023/07/22 13:57:47;;;;;;;15.15;8.88;;;14.40;99.90;;;;;;4964555;28;20454;-80
2023/07/22 14:00:14;;;;;;;15.35;9.52;;;14.70;99.90;;;;;;4941970;29;20051;-80
2023/07/22 14:02:41;;;;;;;14.68;8.73;;;14.80;99.90;;;;;;4949176;28;20134;-80
2023/07/22 14:05:10;;;;;;;16.52;9.55;;;14.80;99.90;;;;;;4944614;29;20058;-80
2023/07/22 14:07:45;;;;;;;16.83;9.93;;;14.80;99.90;;;;;;4946483;28;20545;-80
2023/07/22 14:10:16;;;;;;;17.38;10.10;;;14.90;99.90;;;;;;4953884;28;20090;-81
2023/07/22 14:12:54;;;;;;;17.40;10.85;;;15.00;99.90;;;;;;4955274;28;20117;-80
2023/07/22 14:15:20;;;;;;;15.93;9.82;;;15.20;99.90;;;;;;4972881;28;20133;-80
2023/07/22 14:17:51;;;;;;;17.98;10.25;;;15.10;99.90;;;;;;4974055;28;20081;-80
2023/07/22 14:20:19;;;;;;;16.83;9.90;;;15.10;99.90;;;;;;4956325;28;20046;-81
2023/07/22 14:22:54;;;;;;;15.27;9.68;;;15.20;99.90;;;;;;4963482;28;20055;-81
2023/07/22 14:25:26;;;;;;;15.95;10.27;;;15.20;99.90;;;;;;4953375;29;20510;-80
2023/07/22 14:27:57;;;;;;;18.52;12.07;;;15.20;99.90;;;;;;4938875;28;20047;-81
2023/07/22 14:30:32;;;;;;;17.77;12.50;;;15.80;99.90;;;;;;4953374;28;20051;-79
2023/07/22 14:33:08;;;;;;;18.98;12.15;;;15.10;99.90;;;;;;4944203;28;20407;-81
2023/07/22 14:36:43;;;;;;;17.85;12.43;;;15.10;99.90;;;;;;4953825;28;20091;-80
2023/07/22 14:39:49;;;;;;;;;;;14.60;99.90;;;;;;4961691;28;20094;-79
2023/07/22 14:42:46;;;;;;;19.70;13.65;;;15.00;99.90;;;;;;4943193;28;19922;-79
2023/07/22 14:45:18;;;;;;;20.98;12.25;;;15.00;99.90;;;;;;4944123;28;20600;-79
2023/07/22 14:48:35;;;;;;;24.17;14.95;;;15.10;99.90;;;;;;4942728;28;20150;-80
2023/07/22 14:51:00;;;;;;;20.80;13.93;;;15.10;99.90;;;;;;4943198;28;20100;-80
2023/07/22 14:53:40;;;;;;;20.80;13.90;;;15.10;99.90;;;;;;4959121;28;20110;-81
2023/07/22 14:56:08;;;;;;;22.15;13.95;;;15.10;99.90;;;;;;4961026;28;20054;-81
2023/07/22 14:58:41;;;;;;;20.75;13.23;;;16.00;99.90;;;;;;4958068;28;20042;-81
2023/07/22 15:01:16;;;;;;;22.80;13.40;;;15.70;99.90;;;;;;4943019;28;20047;-80
2023/07/22 15:04:31;;;;;;;20.13;13.25;;;15.20;99.90;;;;;;4942667;28;20325;-80
2023/07/22 15:07:12;;;;;;;21.45;13.38;;;15.10;99.90;;;;;;4941871;28;20055;-80
2023/07/22 15:10:03;;;;;;;21.13;13.20;;;15.90;99.90;;;;;;4945045;28;20047;-80
2023/07/22 15:12:29;;;;;;;19.60;12.57;;;15.20;99.90;;;;;;4944914;28;20047;-81
2023/07/22 15:14:57;;;;;;;20.83;13.60;;;15.20;99.90;;;;;;4945280;29;20766;-80
2023/07/22 15:17:35;;;;;;;22.20;14.52;;;16.00;99.90;;;;;;4946478;28;20054;-81
2023/07/22 15:20:01;;;;;;;21.48;13.10;;;15.10;99.90;;;;;;4945642;28;20075;-81
2023/07/22 15:22:27;;;;;;;20.55;13.00;;;15.10;99.90;;;;;;4948380;28;20534;-80
2023/07/22 15:24:52;;;;;;;23.25;13.93;;;15.20;99.90;;;;;;4944407;28;20496;-80
2023/07/22 15:27:36;;;;;;;22.08;13.57;;;15.20;99.90;;;;;;4947790;28;20043;-81
2023/07/22 15:30:09;;;;;;;19.15;13.00;;;15.30;99.90;;;;;;4951375;28;20133;-81
2023/07/22 15:36:12;;;;;;;21.05;13.55;;;15.20;99.90;;;;;;4949764;28;20047;-81
2023/07/22 15:38:37;;;;;;;20.80;12.50;;;16.10;99.90;;;;;;4949368;28;20050;-81
2023/07/22 15:41:14;;;;;;;17.73;12.40;;;15.20;99.90;;;;;;4951262;28;20044;-81
2023/07/22 15:43:45;;;;;;;20.42;12.95;;;15.10;99.90;;;;;;4960913;28;20125;-80
2023/07/22 15:46:20;;;;;;;19.17;12.70;;;15.20;99.90;;;;;;4969565;28;20046;-80
2023/07/22 15:48:45;;;;;;;20.40;13.52;;;14.70;99.90;;;;;;4955711;29;20039;-80
2023/07/22 15:51:23;;;;;;;18.88;12.70;;;15.30;99.90;;;;;;4957014;29;20190;-80
2023/07/22 15:53:59;;;;;;;20.33;12.23;;;15.20;99.90;;;;;;4957352;23;20067;-80
2023/07/22 15:56:43;;;;;;;19.17;12.23;;;15.20;99.90;;;;;;4899467;29;20378;-80
2023/07/22 15:59:30;;;;;;;20.58;12.45;;;15.20;99.90;;;;;;4905595;29;20493;-80
2023/07/22 16:01:56;;;;;;;19.23;12.60;;;15.20;99.90;;;;;;4917066;29;20052;-80
2023/07/22 16:04:28;;;;;;;22.00;13.30;;;15.20;99.90;;;;;;4914411;29;20112;-80
2023/07/22 16:07:14;;;;;;;22.35;13.63;;;16.10;99.90;;;;;;4915803;29;20098;-80
2023/07/22 16:09:51;;;;;;;20.55;12.60;;;15.20;99.90;;;;;;4892813;29;20095;-80
2023/07/22 16:12:20;;;;;;;21.48;14.48;;;15.60;99.90;;;;;;4917524;29;20058;-81
2023/07/22 16:15:08;;;;;;;;;;;;;;;;;;;;;
2023/07/22 16:18:14;;;;;;;24.63;15.35;;;15.10;99.90;;;;;;4914052;29;20051;-81
2023/07/22 16:21:41;;;;;;;;;;;;;;;;;;;;;
2023/07/22 16:24:19;;;;;;;22.45;13.38;;;15.00;99.90;;;;;;4884688;29;20120;-83
2023/07/22 16:26:55;;;;;;;20.38;13.35;;;15.00;99.90;;;;;;4881533;29;20044;-83
2023/07/22 16:29:21;;;;;;;22.90;14.40;;;15.70;99.90;;;;;;4898606;29;20523;-82
2023/07/22 16:32:06;;;;;;;20.20;13.48;;;15.00;99.90;;;;;;4912735;29;20141;-81
2023/07/22 16:34:54;;;;;;;22.83;14.43;;;15.10;99.90;;;;;;4909542;29;20358;-83
2023/07/22 16:37:20;;;;;;;22.30;13.57;;;14.70;99.90;;;;;;4903415;29;20750;-83
2023/07/22 16:39:46;;;;;;;24.63;14.30;;;15.10;99.90;;;;;;4918559;29;20528;-83
2023/07/22 16:42:23;;;;;;;20.67;13.07;;;15.20;99.90;;;;;;4922369;29;20051;-85
2023/07/22 16:44:49;;;;;;;24.60;13.43;;;15.20;99.90;;;;;;4913665;29;20060;-82
2023/07/22 16:47:18;;;;;;;20.98;13.77;;;15.60;99.90;;;;;;4898077;29;20072;-82
2023/07/22 16:49:59;;;;;;;21.30;13.10;;;15.30;99.90;;;;;;4890538;29;20051;-82
2023/07/22 16:52:25;;;;;;;19.63;12.45;;;15.30;99.90;;;;;;4902099;29;20485;-82
2023/07/22 16:55:15;;;;;;;19.90;12.52;;;16.10;99.90;;;;;;4944168;29;20054;-82
2023/07/22 16:57:42;;;;;;;20.30;12.45;;;15.30;99.90;;;;;;4936321;29;20056;-82
2023/07/22 17:00:11;;;;;;;21.63;12.15;;;15.30;99.90;;;;;;4919743;29;20079;-82
2023/07/22 17:02:42;;;;;;;19.83;12.63;;;15.30;99.90;;;;;;4920020;29;20558;-82
2023/07/22 17:05:09;;;;;;;20.25;12.27;;;15.30;99.90;;;;;;4918895;29;20043;-82
2023/07/22 17:07:34;;;;;;;17.95;12.07;;;15.30;99.90;;;;;;4919959;29;20551;-82
2023/07/22 17:10:00;;;;;;;19.48;11.80;;;15.80;99.90;;;;;;4919752;29;20143;-81